sensor_id;sensor_type;location;lat;lon;timestamp;pressure;altitude;pressure_sealevel;temperature;humidity
21828;BME280;11076;47.942;11.804;2023-04-16T00:03:29;94083.66;;;3.78;100.00
21828;BME280;11076;47.942;11.804;2023-04-16T00:08:31;94083.22;;;3.74;100.00
21828;BME280;11076;47.942;11.804;2023-04-16T00:13:34;94089.59;;;3.65;100.00
21828;BME280;11076;47.942;11.804;2023-04-16T00:18:36;94096.72;;;3.65;100.00
21828;BME280;11076;47.942;11.804;2023-04-16T00:23:39;94100.16;;;3.65;100.00
21828;BME280;11076;47.942;11.804;2023-04-16T00:28:41;94099.34;;;3.65;100.00
21828;BME280;11076;47.942;11.804;2023-04-16T00:33:43;94099.25;;;3.58;100.00
21828;BME280;11076;47.942;11.804;2023-04-16T00:38:46;94100.00;;;3.67;100.00
21828;BME280;11076;47.942;11.804;2023-04-16T00:43:49;94097.06;;;3.76;100.00
21828;BME280;11076;47.942;11.804;2023-04-16T00:48:53;94099.88;;;3.75;100.00
21828;BME280;11076;47.942;11.804;2023-04-16T00:53:56;94096.50;;;3.81;100.00
21828;BME280;11076;47.942;11.804;2023-04-16T00:58:59;94103.97;;;3.77;100.00
21828;BME280;11076;47.942;11.804;2023-04-16T01:04:01;94104.38;;;3.74;100.00
21828;BME280;11076;47.942;11.804;2023-04-16T01:09:04;94095.69;;;3.66;100.00
21828;BME280;11076;47.942;11.804;2023-04-16T01:14:07;94092.88;;;3.67;100.00
21828;BME280;11076;47.942;11.804;2023-04-16T01:19:09;94092.41;;;3.64;100.00
21828;BME280;11076;47.942;11.804;2023-04-16T01:24:11;94101.34;;;3.48;100.00
21828;BME280;11076;47.942;11.804;2023-04-16T01:29:14;94107.19;;;3.58;100.00
21828;BME280;11076;47.942;11.804;2023-04-16T01:34:16;94110.28;;;3.62;100.00
21828;BME280;11076;47.942;11.804;2023-04-16T01:39:19;94113.94;;;3.61;100.00
21828;BME280;11076;47.942;11.804;2023-04-16T01:44:22;94117.88;;;3.65;100.00
21828;BME280;11076;47.942;11.804;2023-04-16T01:49:24;94122.50;;;3.63;100.00
21828;BME280;11076;47.942;11.804;2023-04-16T01:54:27;94122.25;;;3.72;100.00
21828;BME280;11076;47.942;11.804;2023-04-16T01:59:29;94120.59;;;3.71;100.00
21828;BME280;11076;47.942;11.804;2023-04-16T02:04:31;94121.78;;;3.69;100.00
21828;BME280;11076;47.942;11.804;2023-04-16T02:09:35;94118.97;;;3.70;100.00
21828;BME280;11076;47.942;11.804;2023-04-16T02:14:40;94130.34;;;3.71;100.00
21828;BME280;11076;47.942;11.804;2023-04-16T02:19:42;94128.25;;;3.66;100.00
21828;BME280;11076;47.942;11.804;2023-04-16T02:24:45;94127.25;;;3.67;100.00
21828;BME280;11076;47.942;11.804;2023-04-16T02:29:47;94121.97;;;3.67;100.00
21828;BME280;11076;47.942;11.804;2023-04-16T02:34:51;94119.78;;;3.71;100.00
21828;BME280;11076;47.942;11.804;2023-04-16T02:39:54;94116.66;;;3.67;100.00
21828;BME280;11076;47.942;11.804;2023-04-16T02:44:56;94128.63;;;3.63;100.00
21828;BME280;11076;47.942;11.804;2023-04-16T02:49:58;94123.31;;;3.63;100.00
21828;BME280;11076;47.942;11.804;2023-04-16T02:55:01;94135.91;;;3.61;100.00
21828;BME280;11076;47.942;11.804;2023-04-16T03:00:04;94137.81;;;3.67;100.00
21828;BME280;11076;47.942;11.804;2023-04-16T03:05:07;94134.81;;;3.70;100.00
21828;BME280;11076;47.942;11.804;2023-04-16T03:10:10;94138.56;;;3.61;100.00
21828;BME280;11076;47.942;11.804;2023-04-16T03:15:13;94142.56;;;3.57;100.00
21828;BME280;11076;47.942;11.804;2023-04-16T03:20:15;94155.06;;;3.63;100.00
21828;BME280;11076;47.942;11.804;2023-04-16T03:25:20;94155.06;;;3.63;100.00
21828;BME280;11076;47.942;11.804;2023-04-16T03:30:23;94147.75;;;3.65;100.00
21828;BME280;11076;47.942;11.804;2023-04-16T03:35:25;94158.03;;;3.60;100.00
21828;BME280;11076;47.942;11.804;2023-04-16T03:40:28;94159.06;;;3.59;100.00
21828;BME280;11076;47.942;11.804;2023-04-16T03:45:32;94161.16;;;3.64;100.00
21828;BME280;11076;47.942;11.804;2023-04-16T03:50:34;94158.72;;;3.62;100.00
21828;BME280;11076;47.942;11.804;2023-04-16T03:55:39;94165.16;;;3.59;100.00
21828;BME280;11076;47.942;11.804;2023-04-16T04:00:43;94173.72;;;3.62;100.00
21828;BME280;11076;47.942;11.804;2023-04-16T04:05:48;94181.31;;;3.65;100.00
21828;BME280;11076;47.942;11.804;2023-04-16T04:10:58;94183.22;;;3.71;100.00
21828;BME280;11076;47.942;11.804;2023-04-16T04:16:00;94183.94;;;3.79;100.00
21828;BME280;11076;47.942;11.804;2023-04-16T04:21:07;94177.47;;;3.67;100.00
21828;BME280;11076;47.942;11.804;2023-04-16T04:26:10;94184.59;;;3.67;100.00
21828;BME280;11076;47.942;11.804;2023-04-16T04:31:14;94188.88;;;3.68;100.00
21828;BME280;11076;47.942;11.804;2023-04-16T04:36:17;94191.81;;;3.73;100.00
21828;BME280;11076;47.942;11.804;2023-04-16T04:41:20;94193.44;;;3.74;100.00
21828;BME280;11076;47.942;11.804;2023-04-16T04:46:22;94193.34;;;3.67;100.00
21828;BME280;11076;47.942;11.804;2023-04-16T04:51:25;94203.19;;;3.73;100.00
21828;BME280;11076;47.942;11.804;2023-04-16T04:56:28;94207.66;;;3.73;100.00
21828;BME280;11076;47.942;11.804;2023-04-16T05:01:30;94210.03;;;3.68;100.00
21828;BME280;11076;47.942;11.804;2023-04-16T05:06:32;94216.50;;;3.65;100.00
21828;BME280;11076;47.942;11.804;2023-04-16T05:11:35;94226.44;;;3.63;100.00
21828;BME280;11076;47.942;11.804;2023-04-16T05:16:37;94226.56;;;3.85;100.00
21828;BME280;11076;47.942;11.804;2023-04-16T05:21:39;94233.59;;;3.92;100.00
21828;BME280;11076;47.942;11.804;2023-04-16T05:26:42;94242.72;;;4.05;100.00
21828;BME280;11076;47.942;11.804;2023-04-16T05:31:44;94250.75;;;4.26;100.00
21828;BME280;11076;47.942;11.804;2023-04-16T05:36:47;94252.47;;;4.34;100.00
21828;BME280;11076;47.942;11.804;2023-04-16T05:41:49;94261.19;;;4.49;100.00
21828;BME280;11076;47.942;11.804;2023-04-16T05:46:52;94265.59;;;4.42;100.00
21828;BME280;11076;47.942;11.804;2023-04-16T05:51:54;94267.06;;;4.60;100.00
21828;BME280;11076;47.942;11.804;2023-04-16T05:56:56;94270.75;;;4.65;100.00
21828;BME280;11076;47.942;11.804;2023-04-16T06:01:59;94264.19;;;4.61;100.00
21828;BME280;11076;47.942;11.804;2023-04-16T06:07:01;94270.13;;;4.63;100.00
21828;BME280;11076;47.942;11.804;2023-04-16T06:12:04;94265.19;;;4.75;100.00
21828;BME280;11076;47.942;11.804;2023-04-16T06:17:07;94262.72;;;5.10;100.00
21828;BME280;11076;47.942;11.804;2023-04-16T06:22:09;94263.88;;;5.22;100.00
21828;BME280;11076;47.942;11.804;2023-04-16T06:27:11;94270.16;;;5.21;100.00
21828;BME280;11076;47.942;11.804;2023-04-16T06:32:14;94268.91;;;5.17;100.00
21828;BME280;11076;47.942;11.804;2023-04-16T06:37:18;94287.56;;;5.09;100.00
21828;BME280;11076;47.942;11.804;2023-04-16T06:42:20;94283.66;;;5.05;100.00
21828;BME280;11076;47.942;11.804;2023-04-16T06:47:23;94286.19;;;5.13;100.00
21828;BME280;11076;47.942;11.804;2023-04-16T06:52:25;94285.19;;;5.14;100.00
21828;BME280;11076;47.942;11.804;2023-04-16T06:57:28;94291.56;;;5.20;100.00
21828;BME280;11076;47.942;11.804;2023-04-16T07:02:30;94294.34;;;5.33;100.00
21828;BME280;11076;47.942;11.804;2023-04-16T07:07:33;94294.03;;;5.43;100.00
21828;BME280;11076;47.942;11.804;2023-04-16T07:12:35;94288.28;;;5.61;100.00
21828;BME280;11076;47.942;11.804;2023-04-16T07:17:37;94286.63;;;5.81;100.00
21828;BME280;11076;47.942;11.804;2023-04-16T07:22:40;94287.81;;;5.78;100.00
21828;BME280;11076;47.942;11.804;2023-04-16T07:27:42;94296.19;;;5.97;100.00
21828;BME280;11076;47.942;11.804;2023-04-16T07:32:45;94297.34;;;6.23;100.00
21828;BME280;11076;47.942;11.804;2023-04-16T07:37:47;94300.19;;;6.49;99.63
21828;BME280;11076;47.942;11.804;2023-04-16T07:42:49;94307.50;;;6.41;98.21
21828;BME280;11076;47.942;11.804;2023-04-16T07:47:52;94305.47;;;6.84;98.37
21828;BME280;11076;47.942;11.804;2023-04-16T07:52:54;94308.94;;;7.40;96.20
21828;BME280;11076;47.942;11.804;2023-04-16T07:57:57;94317.75;;;7.40;93.66
21828;BME280;11076;47.942;11.804;2023-04-16T08:02:59;94316.75;;;7.61;91.60
21828;BME280;11076;47.942;11.804;2023-04-16T08:08:01;94323.13;;;7.67;89.57
21828;BME280;11076;47.942;11.804;2023-04-16T08:13:04;94318.66;;;8.01;89.89
21828;BME280;11076;47.942;11.804;2023-04-16T08:18:06;94321.72;;;8.31;86.81
21828;BME280;11076;47.942;11.804;2023-04-16T08:23:13;94320.84;;;8.70;83.54
21828;BME280;11076;47.942;11.804;2023-04-16T08:28:16;94325.94;;;8.92;84.84
21828;BME280;11076;47.942;11.804;2023-04-16T08:33:18;94322.47;;;8.78;82.49
21828;BME280;11076;47.942;11.804;2023-04-16T08:38:20;94330.50;;;9.68;80.17
21828;BME280;11076;47.942;11.804;2023-04-16T08:43:23;94337.56;;;9.88;78.89
21828;BME280;11076;47.942;11.804;2023-04-16T08:48:28;94334.22;;;10.31;75.87
21828;BME280;11076;47.942;11.804;2023-04-16T08:53:48;94334.97;;;10.38;74.26
21828;BME280;11076;47.942;11.804;2023-04-16T08:58:53;94342.56;;;10.41;76.00
21828;BME280;11076;47.942;11.804;2023-04-16T09:03:56;94355.38;;;10.58;75.15
21828;BME280;11076;47.942;11.804;2023-04-16T09:08:59;94354.84;;;10.49;73.66
21828;BME280;11076;47.942;11.804;2023-04-16T09:14:02;94355.47;;;10.88;70.06
21828;BME280;11076;47.942;11.804;2023-04-16T09:19:05;94347.91;;;11.89;69.13
21828;BME280;11076;47.942;11.804;2023-04-16T09:24:09;94352.53;;;11.14;68.48
21828;BME280;11076;47.942;11.804;2023-04-16T09:29:35;94355.28;;;11.08;70.57
21828;BME280;11076;47.942;11.804;2023-04-16T09:34:57;94343.84;;;10.57;69.07
21828;BME280;11076;47.942;11.804;2023-04-16T09:40:01;94360.69;;;10.83;69.78
21828;BME280;11076;47.942;11.804;2023-04-16T09:45:05;94356.97;;;10.84;71.24
21828;BME280;11076;47.942;11.804;2023-04-16T09:50:09;94360.97;;;10.74;71.81
21828;BME280;11076;47.942;11.804;2023-04-16T09:55:13;94361.50;;;10.83;70.53
21828;BME280;11076;47.942;11.804;2023-04-16T10:00:17;94357.97;;;11.26;70.28
21828;BME280;11076;47.942;11.804;2023-04-16T10:05:20;94363.59;;;11.37;69.69
21828;BME280;11076;47.942;11.804;2023-04-16T10:10:22;94365.59;;;11.41;68.35
21828;BME280;11076;47.942;11.804;2023-04-16T10:15:25;94366.72;;;11.15;70.07
21828;BME280;11076;47.942;11.804;2023-04-16T10:20:27;94374.88;;;10.83;67.29
21828;BME280;11076;47.942;11.804;2023-04-16T10:25:31;94368.59;;;11.33;66.75
21828;BME280;11076;47.942;11.804;2023-04-16T10:30:33;94375.34;;;10.99;68.11
21828;BME280;11076;47.942;11.804;2023-04-16T10:35:39;94376.06;;;10.87;70.23
21828;BME280;11076;47.942;11.804;2023-04-16T10:40:43;94384.19;;;10.24;71.20
21828;BME280;11076;47.942;11.804;2023-04-16T10:45:46;94381.84;;;10.02;72.61
21828;BME280;11076;47.942;11.804;2023-04-16T10:50:56;94382.94;;;9.56;75.80
21828;BME280;11076;47.942;11.804;2023-04-16T11:01:10;94385.44;;;9.83;74.06
21828;BME280;11076;47.942;11.804;2023-04-16T11:06:15;94389.69;;;9.59;75.69
21828;BME280;11076;47.942;11.804;2023-04-16T11:11:19;94387.31;;;9.44;75.82
21828;BME280;11076;47.942;11.804;2023-04-16T11:16:23;94387.31;;;9.44;76.17
21828;BME280;11076;47.942;11.804;2023-04-16T11:21:26;94386.81;;;9.60;76.93
21828;BME280;11076;47.942;11.804;2023-04-16T11:26:29;94385.78;;;10.00;74.46
21828;BME280;11076;47.942;11.804;2023-04-16T11:31:32;94390.88;;;9.69;75.56
21828;BME280;11076;47.942;11.804;2023-04-16T11:36:44;94399.25;;;9.28;77.20
21828;BME280;11076;47.942;11.804;2023-04-16T11:41:48;94400.06;;;9.28;77.16
21828;BME280;11076;47.942;11.804;2023-04-16T11:46:52;94408.94;;;9.15;78.33
21828;BME280;11076;47.942;11.804;2023-04-16T11:51:56;94403.09;;;9.90;77.67
21828;BME280;11076;47.942;11.804;2023-04-16T11:56:58;94402.56;;;10.45;74.30
21828;BME280;11076;47.942;11.804;2023-04-16T12:02:01;94400.38;;;9.97;75.59
21828;BME280;11076;47.942;11.804;2023-04-16T12:12:29;94403.72;;;9.86;76.46
21828;BME280;11076;47.942;11.804;2023-04-16T12:17:33;94402.94;;;9.79;76.80
21828;BME280;11076;47.942;11.804;2023-04-16T12:22:38;94405.25;;;9.68;76.01
21828;BME280;11076;47.942;11.804;2023-04-16T12:27:48;94414.09;;;9.62;77.00
21828;BME280;11076;47.942;11.804;2023-04-16T12:33:14;94407.25;;;9.80;77.09
21828;BME280;11076;47.942;11.804;2023-04-16T12:38:17;94401.13;;;9.72;77.06
21828;BME280;11076;47.942;11.804;2023-04-16T12:43:19;94398.91;;;10.65;74.30
21828;BME280;11076;47.942;11.804;2023-04-16T12:48:22;94403.00;;;11.48;72.47
21828;BME280;11076;47.942;11.804;2023-04-16T12:53:26;94403.66;;;11.62;70.85
21828;BME280;11076;47.942;11.804;2023-04-16T12:58:29;94400.16;;;11.06;70.50
21828;BME280;11076;47.942;11.804;2023-04-16T13:03:31;94406.44;;;10.49;71.34
21828;BME280;11076;47.942;11.804;2023-04-16T13:08:37;94406.41;;;10.18;72.50
21828;BME280;11076;47.942;11.804;2023-04-16T13:13:39;94411.94;;;9.46;76.55
21828;BME280;11076;47.942;11.804;2023-04-16T13:18:42;94403.19;;;9.25;78.00
21828;BME280;11076;47.942;11.804;2023-04-16T13:23:45;94407.16;;;9.54;78.21
21828;BME280;11076;47.942;11.804;2023-04-16T13:28:48;94415.69;;;9.31;77.99
21828;BME280;11076;47.942;11.804;2023-04-16T13:33:50;94407.50;;;9.20;79.31
21828;BME280;11076;47.942;11.804;2023-04-16T13:38:53;94426.22;;;9.00;79.25
21828;BME280;11076;47.942;11.804;2023-04-16T13:43:55;94424.56;;;8.99;79.13
21828;BME280;11076;47.942;11.804;2023-04-16T13:48:58;94428.06;;;8.92;80.15
21828;BME280;11076;47.942;11.804;2023-04-16T13:54:00;94432.38;;;9.00;81.05
21828;BME280;11076;47.942;11.804;2023-04-16T13:59:03;94440.75;;;9.10;80.66
21828;BME280;11076;47.942;11.804;2023-04-16T14:04:06;94438.53;;;8.87;80.84
21828;BME280;11076;47.942;11.804;2023-04-16T14:09:08;94438.75;;;8.59;82.86
21828;BME280;11076;47.942;11.804;2023-04-16T14:14:12;94442.44;;;8.78;83.15
21828;BME280;11076;47.942;11.804;2023-04-16T14:19:14;94444.69;;;8.61;83.88
21828;BME280;11076;47.942;11.804;2023-04-16T14:24:17;94446.94;;;8.51;84.69
21828;BME280;11076;47.942;11.804;2023-04-16T14:29:19;94448.41;;;8.53;85.05
21828;BME280;11076;47.942;11.804;2023-04-16T14:34:21;94449.16;;;8.34;86.65
21828;BME280;11076;47.942;11.804;2023-04-16T14:39:24;94443.41;;;8.37;86.49
21828;BME280;11076;47.942;11.804;2023-04-16T14:44:27;94447.69;;;8.11;87.66
21828;BME280;11076;47.942;11.804;2023-04-16T14:49:30;94449.53;;;8.04;87.57
21828;BME280;11076;47.942;11.804;2023-04-16T14:54:32;94450.16;;;8.13;87.78
21828;BME280;11076;47.942;11.804;2023-04-16T14:59:35;94454.66;;;8.19;88.09
21828;BME280;11076;47.942;11.804;2023-04-16T15:04:38;94453.03;;;8.25;87.42
21828;BME280;11076;47.942;11.804;2023-04-16T15:09:40;94452.66;;;8.41;87.59
21828;BME280;11076;47.942;11.804;2023-04-16T15:14:42;94462.88;;;8.24;88.21
21828;BME280;11076;47.942;11.804;2023-04-16T15:19:45;94461.78;;;7.99;89.31
21828;BME280;11076;47.942;11.804;2023-04-16T15:24:47;94455.66;;;7.98;89.16
21828;BME280;11076;47.942;11.804;2023-04-16T15:29:50;94461.63;;;8.13;89.09
21828;BME280;11076;47.942;11.804;2023-04-16T15:34:55;94457.31;;;8.06;87.91
21828;BME280;11076;47.942;11.804;2023-04-16T15:39:57;94455.94;;;8.30;88.13
21828;BME280;11076;47.942;11.804;2023-04-16T15:44:59;94467.03;;;8.60;88.15
21828;BME280;11076;47.942;11.804;2023-04-16T15:50:02;94465.78;;;8.69;85.50
21828;BME280;11076;47.942;11.804;2023-04-16T15:55:05;94469.31;;;8.70;85.03
21828;BME280;11076;47.942;11.804;2023-04-16T16:00:08;94460.41;;;8.29;86.36
21828;BME280;11076;47.942;11.804;2023-04-16T16:05:18;94472.59;;;7.84;87.18
21828;BME280;11076;47.942;11.804;2023-04-16T16:10:20;94463.09;;;7.54;88.78
21828;BME280;11076;47.942;11.804;2023-04-16T16:15:23;94452.56;;;7.40;89.50
21828;BME280;11076;47.942;11.804;2023-04-16T16:20:25;94453.78;;;7.02;91.18
21828;BME280;11076;47.942;11.804;2023-04-16T16:25:28;94456.13;;;6.84;93.02
21828;BME280;11076;47.942;11.804;2023-04-16T16:30:31;94463.38;;;6.68;94.34
21828;BME280;11076;47.942;11.804;2023-04-16T16:35:33;94465.09;;;6.54;94.87
21828;BME280;11076;47.942;11.804;2023-04-16T16:40:37;94468.44;;;6.35;96.13
21828;BME280;11076;47.942;11.804;2023-04-16T16:45:39;94468.28;;;6.22;95.96
21828;BME280;11076;47.942;11.804;2023-04-16T16:50:42;94465.69;;;6.07;96.66
21828;BME280;11076;47.942;11.804;2023-04-16T16:55:44;94470.84;;;5.93;98.59
21828;BME280;11076;47.942;11.804;2023-04-16T17:00:47;94472.16;;;5.83;99.52
21828;BME280;11076;47.942;11.804;2023-04-16T17:05:49;94476.28;;;5.70;100.00
21828;BME280;11076;47.942;11.804;2023-04-16T17:10:52;94477.50;;;5.68;100.00
21828;BME280;11076;47.942;11.804;2023-04-16T17:15:54;94487.66;;;5.64;100.00
21828;BME280;11076;47.942;11.804;2023-04-16T17:20:57;94492.44;;;5.54;100.00
21828;BME280;11076;47.942;11.804;2023-04-16T17:25:59;94493.28;;;5.40;100.00
21828;BME280;11076;47.942;11.804;2023-04-16T17:31:02;94496.19;;;5.30;100.00
21828;BME280;11076;47.942;11.804;2023-04-16T17:36:05;94496.81;;;5.17;100.00
21828;BME280;11076;47.942;11.804;2023-04-16T17:41:08;94493.00;;;5.05;100.00
21828;BME280;11076;47.942;11.804;2023-04-16T17:46:10;94502.41;;;4.92;100.00
21828;BME280;11076;47.942;11.804;2023-04-16T17:51:13;94508.50;;;4.78;100.00
21828;BME280;11076;47.942;11.804;2023-04-16T17:56:18;94510.28;;;4.63;100.00
21828;BME280;11076;47.942;11.804;2023-04-16T18:01:20;94515.38;;;4.49;100.00
21828;BME280;11076;47.942;11.804;2023-04-16T18:06:22;94522.09;;;4.37;100.00
21828;BME280;11076;47.942;11.804;2023-04-16T18:11:25;94516.56;;;4.24;100.00
21828;BME280;11076;47.942;11.804;2023-04-16T18:16:28;94529.19;;;4.13;100.00
21828;BME280;11076;47.942;11.804;2023-04-16T18:21:30;94531.09;;;4.05;100.00
21828;BME280;11076;47.942;11.804;2023-04-16T18:26:33;94531.63;;;4.00;100.00
21828;BME280;11076;47.942;11.804;2023-04-16T18:31:36;94542.75;;;3.87;100.00
21828;BME280;11076;47.942;11.804;2023-04-16T18:36:39;94540.97;;;3.79;100.00
21828;BME280;11076;47.942;11.804;2023-04-16T18:41:41;94548.63;;;3.74;100.00
21828;BME280;11076;47.942;11.804;2023-04-16T18:46:48;94563.50;;;3.67;100.00
21828;BME280;11076;47.942;11.804;2023-04-16T18:51:51;94571.19;;;3.46;100.00
21828;BME280;11076;47.942;11.804;2023-04-16T18:56:56;94569.78;;;3.27;100.00
21828;BME280;11076;47.942;11.804;2023-04-16T19:02:00;94568.63;;;3.21;100.00
21828;BME280;11076;47.942;11.804;2023-04-16T19:07:02;94580.84;;;3.14;100.00
21828;BME280;11076;47.942;11.804;2023-04-16T19:12:05;94582.53;;;3.07;100.00
21828;BME280;11076;47.942;11.804;2023-04-16T19:17:07;94586.50;;;3.03;100.00
21828;BME280;11076;47.942;11.804;2023-04-16T19:22:09;94581.88;;;3.13;100.00
21828;BME280;11076;47.942;11.804;2023-04-16T19:27:12;94591.38;;;3.38;100.00
21828;BME280;11076;47.942;11.804;2023-04-16T19:32:14;94599.03;;;3.73;100.00
21828;BME280;11076;47.942;11.804;2023-04-16T19:37:16;94598.75;;;3.99;100.00
21828;BME280;11076;47.942;11.804;2023-04-16T19:42:19;94600.97;;;4.18;100.00
21828;BME280;11076;47.942;11.804;2023-04-16T19:47:21;94596.91;;;4.31;100.00
21828;BME280;11076;47.942;11.804;2023-04-16T19:52:24;94597.88;;;4.38;100.00
21828;BME280;11076;47.942;11.804;2023-04-16T19:57:26;94595.56;;;4.35;100.00
21828;BME280;11076;47.942;11.804;2023-04-16T20:02:29;94595.63;;;4.27;100.00
21828;BME280;11076;47.942;11.804;2023-04-16T20:07:31;94594.78;;;4.26;100.00
21828;BME280;11076;47.942;11.804;2023-04-16T20:12:33;94593.72;;;4.12;100.00
21828;BME280;11076;47.942;11.804;2023-04-16T20:17:36;94591.13;;;4.04;100.00
21828;BME280;11076;47.942;11.804;2023-04-16T20:22:39;94590.16;;;3.97;100.00
21828;BME280;11076;47.942;11.804;2023-04-16T20:27:41;94589.34;;;3.96;100.00
21828;BME280;11076;47.942;11.804;2023-04-16T20:32:43;94598.63;;;3.92;100.00
21828;BME280;11076;47.942;11.804;2023-04-16T20:37:46;94587.88;;;3.86;100.00
21828;BME280;11076;47.942;11.804;2023-04-16T20:42:48;94590.56;;;3.77;100.00
21828;BME280;11076;47.942;11.804;2023-04-16T20:47:53;94581.03;;;3.68;100.00
21828;BME280;11076;47.942;11.804;2023-04-16T20:52:55;94584.66;;;3.67;100.00
21828;BME280;11076;47.942;11.804;2023-04-16T20:57:57;94588.63;;;3.71;100.00
21828;BME280;11076;47.942;11.804;2023-04-16T21:03:00;94586.13;;;3.70;100.00
21828;BME280;11076;47.942;11.804;2023-04-16T21:08:03;94587.47;;;3.66;100.00
21828;BME280;11076;47.942;11.804;2023-04-16T21:13:06;94591.09;;;3.73;100.00
21828;BME280;11076;47.942;11.804;2023-04-16T21:18:09;94595.50;;;3.89;100.00
21828;BME280;11076;47.942;11.804;2023-04-16T21:23:12;94591.44;;;4.01;100.00
21828;BME280;11076;47.942;11.804;2023-04-16T21:28:14;94591.81;;;3.98;100.00
21828;BME280;11076;47.942;11.804;2023-04-16T21:33:17;94604.03;;;3.99;100.00
21828;BME280;11076;47.942;11.804;2023-04-16T21:38:20;94599.66;;;4.14;100.00
21828;BME280;11076;47.942;11.804;2023-04-16T21:43:28;94601.59;;;4.21;100.00
21828;BME280;11076;47.942;11.804;2023-04-16T21:48:33;94602.56;;;4.28;100.00
21828;BME280;11076;47.942;11.804;2023-04-16T21:53:35;94596.44;;;4.27;100.00
21828;BME280;11076;47.942;11.804;2023-04-16T21:58:39;94589.03;;;4.23;100.00
21828;BME280;11076;47.942;11.804;2023-04-16T22:03:42;94577.84;;;4.12;100.00
21828;BME280;11076;47.942;11.804;2023-04-16T22:08:44;94582.53;;;4.02;100.00
21828;BME280;11076;47.942;11.804;2023-04-16T22:13:47;94577.94;;;3.96;100.00
21828;BME280;11076;47.942;11.804;2023-04-16T22:18:50;94584.03;;;3.96;100.00
21828;BME280;11076;47.942;11.804;2023-04-16T22:23:52;94577.56;;;3.99;100.00
21828;BME280;11076;47.942;11.804;2023-04-16T22:28:55;94583.69;;;3.99;100.00
21828;BME280;11076;47.942;11.804;2023-04-16T22:33:57;94583.22;;;3.96;100.00
21828;BME280;11076;47.942;11.804;2023-04-16T22:38:59;94584.03;;;3.96;100.00
21828;BME280;11076;47.942;11.804;2023-04-16T22:44:02;94581.91;;;3.92;100.00
21828;BME280;11076;47.942;11.804;2023-04-16T22:49:04;94587.19;;;3.92;100.00
21828;BME280;11076;47.942;11.804;2023-04-16T22:54:07;94576.97;;;3.89;100.00
21828;BME280;11076;47.942;11.804;2023-04-16T22:59:13;94574.38;;;3.81;100.00
21828;BME280;11076;47.942;11.804;2023-04-16T23:04:15;94568.72;;;3.84;100.00
21828;BME280;11076;47.942;11.804;2023-04-16T23:09:18;94573.56;;;3.80;100.00
21828;BME280;11076;47.942;11.804;2023-04-16T23:14:21;94574.22;;;3.74;100.00
21828;BME280;11076;47.942;11.804;2023-04-16T23:19:24;94577.56;;;3.68;100.00
21828;BME280;11076;47.942;11.804;2023-04-16T23:24:26;94566.53;;;3.56;100.00
21828;BME280;11076;47.942;11.804;2023-04-16T23:29:28;94566.59;;;3.39;100.00
21828;BME280;11076;47.942;11.804;2023-04-16T23:34:31;94566.28;;;3.26;100.00
21828;BME280;11076;47.942;11.804;2023-04-16T23:39:33;94570.66;;;3.11;100.00
21828;BME280;11076;47.942;11.804;2023-04-16T23:44:35;94570.16;;;2.99;100.00
21828;BME280;11076;47.942;11.804;2023-04-16T23:49:38;94569.53;;;2.89;100.00
21828;BME280;11076;47.942;11.804;2023-04-16T23:54:40;94574.28;;;2.93;100.00
21828;BME280;11076;47.942;11.804;2023-04-16T23:59:42;94576.59;;;3.05;100.00
